PGT1794 ESSA-LTFJ
Flight info
| Callsign | PGT1794 |
|---|---|
| Flight time | 3h 10m |
| Altitude | 37000 |
| Route | BABAP T316 NEPVA DCT PENOR N133 LENOV DCT RAZEC DCT KEKED DCT BADOR DCT CONWI DCT LAMIT DCT TIMUR L606 ADORU UM19 IBODU |
| Aircraft | A320/M-SDE3FGHIRWY/LB1 |
Departure
| Time | 2026-05-07 15:46 |
|---|---|
| Airport | Stockholm-Arlanda Airport (ESSA) |
Arrival
| Time | 2026-05-07 18:56 |
|---|---|
| Airport | Istanbul Sabiha Gökçen International Airport (LTFJ) |
| Time | Latitude | Longitude | Altitude | Speed | Heading |
|---|---|---|---|---|---|
| 2026-05-07 15:19 | 59.65397 | 17.93534 | 138 ft | 0 kts | 75° |
| 2026-05-07 15:35 | 59.65395 | 17.93524 | 137 ft | 2 kts | 75° |
| 2026-05-07 15:36 | 59.65391 | 17.93491 | 137 ft | 2 kts | 75° |
| 2026-05-07 15:36 | 59.65387 | 17.93458 | 137 ft | 2 kts | 75° |
| 2026-05-07 15:36 | 59.65382 | 17.93425 | 137 ft | 2 kts | 68° |
| 2026-05-07 15:36 | 59.65371 | 17.93401 | 137 ft | 2 kts | 355° |
| 2026-05-07 15:37 | 59.65366 | 17.93402 | 137 ft | 0 kts | 336° |
| 2026-05-07 15:39 | 59.65370 | 17.93398 | 137 ft | 2 kts | 334° |
| 2026-05-07 15:40 | 59.65398 | 17.93374 | 137 ft | 9 kts | 338° |
| 2026-05-07 15:40 | 59.65453 | 17.93343 | 137 ft | 7 kts | 352° |
| 2026-05-07 15:40 | 59.65506 | 17.93318 | 137 ft | 7 kts | 323° |
| 2026-05-07 15:40 | 59.65516 | 17.93195 | 138 ft | 10 kts | 258° |
| 2026-05-07 15:41 | 59.65497 | 17.93051 | 138 ft | 11 kts | 254° |
| 2026-05-07 15:41 | 59.65473 | 17.92895 | 138 ft | 12 kts | 251° |
| 2026-05-07 15:41 | 59.65439 | 17.92743 | 138 ft | 8 kts | 244° |
| 2026-05-07 15:41 | 59.65440 | 17.92640 | 138 ft | 8 kts | 301° |
| 2026-05-07 15:42 | 59.65481 | 17.92575 | 138 ft | 9 kts | 330° |
| 2026-05-07 15:42 | 59.65561 | 17.92516 | 138 ft | 15 kts | 344° |
| 2026-05-07 15:42 | 59.65677 | 17.92455 | 138 ft | 17 kts | 345° |
| 2026-05-07 15:42 | 59.65783 | 17.92432 | 138 ft | 14 kts | 6° |
| 2026-05-07 15:43 | 59.65846 | 17.92451 | 138 ft | 14 kts | 10° |
| 2026-05-07 15:43 | 59.65962 | 17.92493 | 138 ft | 17 kts | 10° |
| 2026-05-07 15:43 | 59.66100 | 17.92543 | 138 ft | 14 kts | 10° |
| 2026-05-07 15:43 | 59.66188 | 17.92575 | 138 ft | 12 kts | 10° |
| 2026-05-07 15:44 | 59.66242 | 17.92595 | 138 ft | 13 kts | 10° |
| 2026-05-07 15:44 | 59.66357 | 17.92636 | 138 ft | 13 kts | 10° |
| 2026-05-07 15:44 | 59.66427 | 17.92657 | 138 ft | 16 kts | 4° |
| 2026-05-07 15:44 | 59.66524 | 17.92618 | 138 ft | 13 kts | 341° |
| 2026-05-07 15:45 | 59.66598 | 17.92553 | 139 ft | 11 kts | 320° |
| 2026-05-07 15:45 | 59.66608 | 17.92425 | 141 ft | 10 kts | 247° |
| 2026-05-07 15:45 | 59.66537 | 17.92345 | 142 ft | 13 kts | 192° |
| 2026-05-07 15:45 | 59.66443 | 17.92310 | 142 ft | 18 kts | 191° |
| 2026-05-07 15:46 | 59.65204 | 17.91857 | 144 ft | 157 kts | 191° |
| 2026-05-07 15:46 | 59.63994 | 17.91424 | 405 ft | 187 kts | 190° |
| 2026-05-07 15:46 | 59.62719 | 17.90986 | 1319 ft | 184 kts | 188° |
| 2026-05-07 15:47 | 59.61453 | 17.90658 | 2201 ft | 186 kts | 185° |
| 2026-05-07 15:47 | 59.60102 | 17.90459 | 2549 ft | 205 kts | 184° |
| 2026-05-07 15:47 | 59.58643 | 17.90287 | 3117 ft | 213 kts | 185° |
| 2026-05-07 15:47 | 59.57151 | 17.90376 | 3725 ft | 221 kts | 164° |
| 2026-05-07 15:48 | 59.55828 | 17.91944 | 4306 ft | 230 kts | 134° |
| 2026-05-07 15:48 | 59.54732 | 17.94264 | 4984 ft | 233 kts | 132° |
| 2026-05-07 15:48 | 59.53917 | 17.97005 | 5627 ft | 235 kts | 99° |
| 2026-05-07 15:48 | 59.53820 | 18.00317 | 5971 ft | 254 kts | 90° |
| 2026-05-07 15:49 | 59.53332 | 18.03780 | 6281 ft | 276 kts | 124° |
| 2026-05-07 15:49 | 59.51880 | 18.06266 | 6900 ft | 282 kts | 154° |
| 2026-05-07 15:49 | 59.50050 | 18.07699 | 7627 ft | 285 kts | 165° |
| 2026-05-07 15:49 | 59.48139 | 18.08797 | 8357 ft | 289 kts | 166° |
| 2026-05-07 15:50 | 59.46197 | 18.09939 | 9097 ft | 293 kts | 165° |
| 2026-05-07 15:50 | 59.44250 | 18.11254 | 9836 ft | 298 kts | 162° |
| 2026-05-07 15:50 | 59.42294 | 18.12752 | 10334 ft | 311 kts | 160° |
| 2026-05-07 15:50 | 59.40231 | 18.14469 | 10500 ft | 334 kts | 159° |
| 2026-05-07 15:51 | 59.38038 | 18.16389 | 10632 ft | 356 kts | 158° |
| 2026-05-07 15:51 | 59.35743 | 18.18457 | 10763 ft | 376 kts | 157° |
| 2026-05-07 15:51 | 59.33336 | 18.20658 | 11163 ft | 386 kts | 157° |
| 2026-05-07 15:51 | 59.30893 | 18.22894 | 11747 ft | 390 kts | 158° |
| 2026-05-07 15:52 | 59.28419 | 18.25145 | 12355 ft | 393 kts | 158° |
| 2026-05-07 15:52 | 59.25924 | 18.27399 | 12947 ft | 397 kts | 158° |
| 2026-05-07 15:52 | 59.23347 | 18.29296 | 13525 ft | 395 kts | 171° |
| 2026-05-07 15:52 | 59.20634 | 18.29722 | 14081 ft | 390 kts | 188° |
| 2026-05-07 15:53 | 59.17954 | 18.28917 | 14591 ft | 390 kts | 194° |
| 2026-05-07 15:53 | 59.15278 | 18.27977 | 15101 ft | 392 kts | 194° |
| 2026-05-07 15:53 | 59.12585 | 18.27021 | 15601 ft | 394 kts | 194° |
| 2026-05-07 15:53 | 59.09877 | 18.26063 | 16118 ft | 397 kts | 194° |
| 2026-05-07 15:54 | 59.07153 | 18.25103 | 16625 ft | 399 kts | 194° |
| 2026-05-07 15:54 | 59.04414 | 18.24139 | 17121 ft | 401 kts | 194° |
| 2026-05-07 15:54 | 59.01662 | 18.23177 | 17595 ft | 403 kts | 194° |
| 2026-05-07 15:54 | 58.98899 | 18.22215 | 18089 ft | 405 kts | 195° |
| 2026-05-07 15:55 | 58.96122 | 18.21249 | 18539 ft | 407 kts | 195° |
| 2026-05-07 15:55 | 58.93324 | 18.20278 | 18935 ft | 409 kts | 195° |
| 2026-05-07 15:55 | 58.90509 | 18.19305 | 19327 ft | 412 kts | 195° |
| 2026-05-07 15:55 | 58.87680 | 18.18331 | 19686 ft | 414 kts | 194° |
| 2026-05-07 15:56 | 58.84832 | 18.17351 | 20051 ft | 417 kts | 194° |
| 2026-05-07 15:56 | 58.81969 | 18.16366 | 20426 ft | 420 kts | 195° |
| 2026-05-07 15:56 | 58.79083 | 18.15372 | 20796 ft | 422 kts | 195° |
| 2026-05-07 15:56 | 58.76188 | 18.14375 | 21153 ft | 424 kts | 195° |
| 2026-05-07 15:57 | 58.73277 | 18.13375 | 21508 ft | 426 kts | 195° |
| 2026-05-07 15:57 | 58.70348 | 18.12373 | 21853 ft | 428 kts | 195° |
| 2026-05-07 15:57 | 58.67437 | 18.11381 | 22187 ft | 431 kts | 195° |
| 2026-05-07 15:57 | 58.64486 | 18.10380 | 22524 ft | 433 kts | 195° |
| 2026-05-07 15:58 | 58.61511 | 18.09370 | 22858 ft | 435 kts | 195° |
| 2026-05-07 15:58 | 58.58520 | 18.08353 | 23138 ft | 437 kts | 195° |
| 2026-05-07 15:58 | 58.55517 | 18.07328 | 23460 ft | 440 kts | 195° |
| 2026-05-07 15:58 | 58.52494 | 18.06296 | 23761 ft | 442 kts | 195° |
| 2026-05-07 15:59 | 58.49461 | 18.05268 | 24022 ft | 444 kts | 195° |
| 2026-05-07 15:59 | 58.46413 | 18.04241 | 24282 ft | 446 kts | 195° |
| 2026-05-07 15:59 | 58.43347 | 18.03212 | 24536 ft | 448 kts | 194° |
| 2026-05-07 15:59 | 58.40272 | 18.02188 | 24781 ft | 449 kts | 194° |
| 2026-05-07 16:00 | 58.37187 | 18.01161 | 25020 ft | 451 kts | 194° |
| 2026-05-07 16:00 | 58.34085 | 18.00125 | 25262 ft | 453 kts | 194° |
| 2026-05-07 16:00 | 58.30974 | 17.99083 | 25464 ft | 454 kts | 194° |
| 2026-05-07 16:00 | 58.27852 | 17.98040 | 25703 ft | 456 kts | 194° |
| 2026-05-07 16:01 | 58.24726 | 17.96997 | 25937 ft | 458 kts | 194° |
| 2026-05-07 16:01 | 58.21578 | 17.95947 | 26170 ft | 459 kts | 194° |
| 2026-05-07 16:01 | 58.18425 | 17.94899 | 26397 ft | 461 kts | 194° |
| 2026-05-07 16:01 | 58.15268 | 17.93855 | 26710 ft | 460 kts | 194° |
| 2026-05-07 16:02 | 58.12161 | 17.92833 | 27033 ft | 459 kts | 194° |
| 2026-05-07 16:02 | 58.08973 | 17.91784 | 27367 ft | 459 kts | 194° |
| 2026-05-07 16:02 | 58.05875 | 17.90763 | 27674 ft | 458 kts | 194° |
| 2026-05-07 16:02 | 58.02694 | 17.89716 | 27986 ft | 457 kts | 193° |
| 2026-05-07 16:03 | 57.99565 | 17.88688 | 28320 ft | 457 kts | 193° |
| 2026-05-07 16:03 | 57.96478 | 17.87676 | 28645 ft | 456 kts | 193° |
| 2026-05-07 16:03 | 57.93357 | 17.86653 | 28970 ft | 455 kts | 193° |
| 2026-05-07 16:03 | 57.90231 | 17.85636 | 29295 ft | 455 kts | 193° |
| 2026-05-07 16:04 | 57.87116 | 17.84622 | 29619 ft | 454 kts | 193° |
| 2026-05-07 16:04 | 57.84000 | 17.83605 | 29953 ft | 454 kts | 193° |
| 2026-05-07 16:04 | 57.80897 | 17.82595 | 30258 ft | 453 kts | 193° |
| 2026-05-07 16:04 | 57.77783 | 17.81586 | 30524 ft | 453 kts | 193° |
| 2026-05-07 16:05 | 57.74690 | 17.80585 | 30764 ft | 452 kts | 193° |
| 2026-05-07 16:05 | 57.71587 | 17.79579 | 31031 ft | 452 kts | 193° |
| 2026-05-07 16:05 | 57.68493 | 17.78574 | 31295 ft | 451 kts | 193° |
| 2026-05-07 16:05 | 57.65400 | 17.77569 | 31551 ft | 451 kts | 193° |
| 2026-05-07 16:06 | 57.62303 | 17.76569 | 31813 ft | 451 kts | 193° |
| 2026-05-07 16:06 | 57.59210 | 17.75579 | 32076 ft | 450 kts | 193° |
| 2026-05-07 16:06 | 57.56127 | 17.74599 | 32330 ft | 450 kts | 192° |
| 2026-05-07 16:06 | 57.53038 | 17.73619 | 32581 ft | 450 kts | 193° |
| 2026-05-07 16:07 | 57.49949 | 17.72639 | 32843 ft | 449 kts | 193° |
| 2026-05-07 16:07 | 57.46865 | 17.71657 | 33101 ft | 449 kts | 193° |
| 2026-05-07 16:07 | 57.43791 | 17.70674 | 33354 ft | 449 kts | 193° |
| 2026-05-07 16:07 | 57.40753 | 17.69700 | 33603 ft | 448 kts | 193° |
| 2026-05-07 16:08 | 57.37677 | 17.68716 | 33845 ft | 448 kts | 193° |
| 2026-05-07 16:08 | 57.34605 | 17.67736 | 34102 ft | 448 kts | 193° |
| 2026-05-07 16:08 | 57.31533 | 17.66760 | 34325 ft | 447 kts | 193° |
| 2026-05-07 16:08 | 57.28464 | 17.65794 | 34547 ft | 447 kts | 193° |
| 2026-05-07 16:09 | 57.25404 | 17.64837 | 34774 ft | 446 kts | 193° |
| 2026-05-07 16:09 | 57.22350 | 17.63885 | 34988 ft | 445 kts | 192° |
| 2026-05-07 16:09 | 57.19305 | 17.62933 | 35211 ft | 444 kts | 192° |
| 2026-05-07 16:09 | 57.16264 | 17.61981 | 35427 ft | 443 kts | 192° |
| 2026-05-07 16:10 | 57.13234 | 17.61029 | 35635 ft | 442 kts | 192° |
| 2026-05-07 16:10 | 57.10204 | 17.60077 | 35836 ft | 441 kts | 193° |
| 2026-05-07 16:10 | 57.07184 | 17.59130 | 36031 ft | 440 kts | 192° |
| 2026-05-07 16:10 | 57.04160 | 17.58191 | 36214 ft | 439 kts | 192° |
| 2026-05-07 16:11 | 57.01152 | 17.57261 | 36405 ft | 438 kts | 192° |
| 2026-05-07 16:11 | 56.98137 | 17.56332 | 36583 ft | 438 kts | 192° |
| 2026-05-07 16:11 | 56.95143 | 17.55409 | 36742 ft | 437 kts | 192° |
| 2026-05-07 16:11 | 56.92182 | 17.54491 | 36916 ft | 436 kts | 192° |
| 2026-05-07 16:12 | 56.89198 | 17.53565 | 37085 ft | 435 kts | 192° |
| 2026-05-07 16:12 | 56.83205 | 17.51704 | 37114 ft | 437 kts | 192° |
| 2026-05-07 16:13 | 56.77208 | 17.49856 | 37114 ft | 437 kts | 192° |
| 2026-05-07 16:13 | 56.71208 | 17.48026 | 37114 ft | 437 kts | 192° |
| 2026-05-07 16:14 | 56.65207 | 17.46208 | 37111 ft | 437 kts | 192° |
| 2026-05-07 16:14 | 56.59214 | 17.44386 | 37111 ft | 436 kts | 192° |
| 2026-05-07 16:15 | 56.53225 | 17.42559 | 37108 ft | 436 kts | 192° |
| 2026-05-07 16:15 | 56.47245 | 17.40751 | 37110 ft | 436 kts | 192° |
| 2026-05-07 16:16 | 56.41261 | 17.38952 | 37112 ft | 436 kts | 192° |
| 2026-05-07 16:16 | 56.35311 | 17.37171 | 37112 ft | 436 kts | 192° |
| 2026-05-07 16:17 | 56.29336 | 17.35384 | 37109 ft | 435 kts | 192° |
| 2026-05-07 16:17 | 56.23358 | 17.33603 | 37113 ft | 435 kts | 192° |
| 2026-05-07 16:18 | 56.17380 | 17.31809 | 37111 ft | 435 kts | 192° |
| 2026-05-07 16:18 | 56.11412 | 17.30025 | 37105 ft | 435 kts | 192° |
| 2026-05-07 16:19 | 56.05437 | 17.28274 | 37100 ft | 435 kts | 192° |
| 2026-05-07 16:19 | 55.99473 | 17.26530 | 37111 ft | 434 kts | 192° |
| 2026-05-07 16:20 | 55.93524 | 17.24782 | 37117 ft | 433 kts | 192° |
| 2026-05-07 16:20 | 55.87581 | 17.23039 | 37111 ft | 433 kts | 192° |
| 2026-05-07 16:21 | 55.81645 | 17.21305 | 37119 ft | 432 kts | 192° |
| 2026-05-07 16:21 | 55.75713 | 17.19577 | 37119 ft | 432 kts | 192° |
| 2026-05-07 16:22 | 55.69779 | 17.17864 | 37118 ft | 432 kts | 192° |
| 2026-05-07 16:22 | 55.63804 | 17.17534 | 37117 ft | 438 kts | 174° |
| 2026-05-07 16:23 | 55.57983 | 17.20877 | 37108 ft | 445 kts | 159° |
| 2026-05-07 16:23 | 55.52354 | 17.25443 | 37109 ft | 445 kts | 159° |
| 2026-05-07 16:24 | 55.46713 | 17.29981 | 37110 ft | 445 kts | 159° |
| 2026-05-07 16:24 | 55.41082 | 17.34500 | 37107 ft | 445 kts | 159° |
| 2026-05-07 16:25 | 55.35453 | 17.39021 | 37105 ft | 445 kts | 159° |
| 2026-05-07 16:25 | 55.29816 | 17.43505 | 37095 ft | 444 kts | 159° |
| 2026-05-07 16:26 | 55.24198 | 17.47969 | 37110 ft | 443 kts | 159° |
| 2026-05-07 16:26 | 55.18614 | 17.52381 | 37120 ft | 442 kts | 160° |
| 2026-05-07 16:27 | 55.12983 | 17.56708 | 37118 ft | 442 kts | 160° |
| 2026-05-07 16:27 | 55.07351 | 17.60993 | 37111 ft | 442 kts | 160° |
| 2026-05-07 16:28 | 55.01717 | 17.65294 | 37119 ft | 442 kts | 160° |
| 2026-05-07 16:28 | 54.96079 | 17.69601 | 37096 ft | 442 kts | 160° |
| 2026-05-07 16:29 | 54.90473 | 17.73999 | 37106 ft | 442 kts | 159° |
| 2026-05-07 16:29 | 54.84882 | 17.78441 | 37114 ft | 441 kts | 159° |
| 2026-05-07 16:30 | 54.79302 | 17.82829 | 37109 ft | 440 kts | 160° |
| 2026-05-07 16:30 | 54.73721 | 17.87192 | 37110 ft | 440 kts | 160° |
| 2026-05-07 16:31 | 54.68137 | 17.91529 | 37110 ft | 440 kts | 160° |
| 2026-05-07 16:31 | 54.62582 | 17.95821 | 37103 ft | 440 kts | 160° |
| 2026-05-07 16:32 | 54.56997 | 18.00116 | 37100 ft | 440 kts | 160° |
| 2026-05-07 16:32 | 54.51417 | 18.04413 | 37094 ft | 439 kts | 160° |
| 2026-05-07 16:33 | 54.45842 | 18.08687 | 37100 ft | 438 kts | 160° |
| 2026-05-07 16:33 | 54.40283 | 18.12938 | 37091 ft | 437 kts | 160° |
| 2026-05-07 16:34 | 54.34737 | 18.17182 | 37100 ft | 436 kts | 160° |
| 2026-05-07 16:34 | 54.30135 | 18.20686 | 37100 ft | 435 kts | 160° |
| 2026-05-07 16:35 | 54.24596 | 18.24860 | 37099 ft | 435 kts | 160° |
| 2026-05-07 16:35 | 54.19054 | 18.28992 | 37098 ft | 434 kts | 160° |
| 2026-05-07 16:36 | 54.13520 | 18.33112 | 37068 ft | 434 kts | 160° |
| 2026-05-07 16:36 | 54.07981 | 18.37230 | 37063 ft | 434 kts | 160° |
| 2026-05-07 16:37 | 54.02447 | 18.41335 | 37063 ft | 434 kts | 160° |
| 2026-05-07 16:37 | 53.96909 | 18.45433 | 37062 ft | 434 kts | 160° |
| 2026-05-07 16:38 | 53.91373 | 18.49510 | 37058 ft | 434 kts | 160° |
| 2026-05-07 16:38 | 53.85827 | 18.53586 | 37054 ft | 434 kts | 160° |
| 2026-05-07 16:39 | 53.80292 | 18.57651 | 37045 ft | 434 kts | 160° |
| 2026-05-07 16:39 | 53.74754 | 18.61696 | 37046 ft | 434 kts | 161° |
| 2026-05-07 16:40 | 53.69246 | 18.65714 | 37048 ft | 433 kts | 161° |
| 2026-05-07 16:40 | 53.63676 | 18.69768 | 37052 ft | 433 kts | 161° |
| 2026-05-07 16:41 | 53.58176 | 18.73749 | 37057 ft | 433 kts | 161° |
| 2026-05-07 16:41 | 53.52641 | 18.77734 | 37052 ft | 432 kts | 162° |
| 2026-05-07 16:42 | 53.46962 | 18.80861 | 37053 ft | 429 kts | 166° |
| 2026-05-07 16:42 | 53.41266 | 18.83868 | 37051 ft | 429 kts | 166° |
| 2026-05-07 16:43 | 53.35567 | 18.86865 | 37034 ft | 428 kts | 167° |
| 2026-05-07 16:43 | 53.29884 | 18.89842 | 37041 ft | 428 kts | 167° |
| 2026-05-07 16:44 | 53.24204 | 18.92807 | 37049 ft | 427 kts | 167° |
| 2026-05-07 16:44 | 53.18562 | 18.95757 | 37042 ft | 427 kts | 167° |
| 2026-05-07 16:45 | 53.12895 | 18.98717 | 37044 ft | 427 kts | 167° |
| 2026-05-07 16:45 | 53.07226 | 19.01656 | 37042 ft | 426 kts | 167° |
| 2026-05-07 16:46 | 53.01551 | 19.04582 | 37042 ft | 426 kts | 167° |
| 2026-05-07 16:46 | 52.95884 | 19.07507 | 37038 ft | 427 kts | 167° |
| 2026-05-07 16:47 | 52.90219 | 19.10425 | 37022 ft | 426 kts | 167° |
| 2026-05-07 16:47 | 52.84549 | 19.13339 | 37022 ft | 426 kts | 167° |
| 2026-05-07 16:48 | 52.78887 | 19.16236 | 37027 ft | 426 kts | 167° |
| 2026-05-07 16:48 | 52.73220 | 19.19140 | 37030 ft | 426 kts | 167° |
| 2026-05-07 16:49 | 52.67554 | 19.22026 | 37028 ft | 426 kts | 167° |
| 2026-05-07 16:49 | 52.61876 | 19.24898 | 37026 ft | 426 kts | 167° |
| 2026-05-07 16:50 | 52.56210 | 19.27761 | 37026 ft | 427 kts | 167° |
| 2026-05-07 16:50 | 52.50532 | 19.30626 | 37002 ft | 426 kts | 167° |
| 2026-05-07 16:51 | 52.44857 | 19.33486 | 37021 ft | 426 kts | 167° |
| 2026-05-07 16:51 | 52.39182 | 19.36333 | 37020 ft | 426 kts | 167° |
| 2026-05-07 16:52 | 52.33554 | 19.39150 | 37009 ft | 426 kts | 167° |
| 2026-05-07 16:52 | 52.27886 | 19.41981 | 37007 ft | 426 kts | 167° |
| 2026-05-07 16:53 | 52.22210 | 19.44806 | 37006 ft | 426 kts | 167° |
| 2026-05-07 16:53 | 52.16538 | 19.47623 | 37005 ft | 426 kts | 167° |
| 2026-05-07 16:54 | 52.10861 | 19.50438 | 37006 ft | 426 kts | 167° |
| 2026-05-07 16:54 | 52.05189 | 19.53241 | 37003 ft | 426 kts | 167° |
| 2026-05-07 16:55 | 51.99515 | 19.56035 | 36998 ft | 426 kts | 167° |
| 2026-05-07 16:55 | 51.93843 | 19.58819 | 37000 ft | 426 kts | 167° |
| 2026-05-07 16:56 | 51.88173 | 19.61600 | 36986 ft | 426 kts | 167° |
| 2026-05-07 16:56 | 51.79667 | 19.65765 | 36984 ft | 426 kts | 167° |
| 2026-05-07 16:57 | 51.74014 | 19.68685 | 36982 ft | 427 kts | 166° |
| 2026-05-07 16:57 | 51.68378 | 19.71722 | 36972 ft | 427 kts | 166° |
| 2026-05-07 16:58 | 51.62749 | 19.74732 | 36968 ft | 427 kts | 166° |
| 2026-05-07 16:58 | 51.57103 | 19.77685 | 36979 ft | 427 kts | 166° |
| 2026-05-07 16:59 | 51.51450 | 19.80622 | 36977 ft | 427 kts | 166° |
| 2026-05-07 16:59 | 51.45809 | 19.83563 | 36969 ft | 427 kts | 166° |
| 2026-05-07 17:00 | 51.40154 | 19.86532 | 36968 ft | 427 kts | 166° |
| 2026-05-07 17:00 | 51.34505 | 19.89482 | 36970 ft | 427 kts | 166° |
| 2026-05-07 17:01 | 51.28863 | 19.92417 | 36975 ft | 427 kts | 166° |
| 2026-05-07 17:01 | 51.23246 | 19.95311 | 36957 ft | 426 kts | 166° |
| 2026-05-07 17:02 | 51.17604 | 19.98218 | 36965 ft | 426 kts | 166° |
| 2026-05-07 17:02 | 51.11964 | 20.01118 | 36967 ft | 426 kts | 166° |
| 2026-05-07 17:03 | 51.06323 | 20.04013 | 36972 ft | 425 kts | 167° |
| 2026-05-07 17:03 | 51.00694 | 20.06896 | 36981 ft | 425 kts | 167° |
| 2026-05-07 17:04 | 50.95061 | 20.09764 | 36978 ft | 424 kts | 167° |
| 2026-05-07 17:04 | 50.89441 | 20.12608 | 36975 ft | 424 kts | 167° |
| 2026-05-07 17:05 | 50.83829 | 20.15451 | 36965 ft | 423 kts | 167° |
| 2026-05-07 17:05 | 50.78233 | 20.18284 | 36976 ft | 422 kts | 167° |
| 2026-05-07 17:06 | 50.72650 | 20.21110 | 36972 ft | 421 kts | 166° |
| 2026-05-07 17:06 | 50.67068 | 20.23931 | 36977 ft | 421 kts | 167° |
| 2026-05-07 17:07 | 50.61506 | 20.26853 | 36973 ft | 422 kts | 164° |
| 2026-05-07 17:07 | 50.56045 | 20.30130 | 36977 ft | 422 kts | 163° |
| 2026-05-07 17:08 | 50.50582 | 20.33503 | 36975 ft | 422 kts | 163° |
| 2026-05-07 17:08 | 50.45092 | 20.36798 | 36943 ft | 422 kts | 164° |
| 2026-05-07 17:09 | 50.39587 | 20.40023 | 36958 ft | 423 kts | 164° |
| 2026-05-07 17:09 | 50.34079 | 20.43243 | 36963 ft | 423 kts | 164° |
| 2026-05-07 17:10 | 50.28565 | 20.46490 | 36964 ft | 423 kts | 164° |
| 2026-05-07 17:10 | 50.23048 | 20.49723 | 36966 ft | 423 kts | 164° |
| 2026-05-07 17:11 | 50.17537 | 20.52950 | 36958 ft | 423 kts | 164° |
| 2026-05-07 17:11 | 50.12011 | 20.56176 | 36939 ft | 424 kts | 164° |
| 2026-05-07 17:12 | 50.06478 | 20.59389 | 36945 ft | 424 kts | 164° |
| 2026-05-07 17:12 | 50.00954 | 20.62591 | 36959 ft | 424 kts | 164° |
| 2026-05-07 17:13 | 49.95419 | 20.65798 | 36967 ft | 424 kts | 164° |
| 2026-05-07 17:13 | 49.89879 | 20.68994 | 36964 ft | 424 kts | 164° |
| 2026-05-07 17:14 | 49.84343 | 20.72173 | 36968 ft | 424 kts | 164° |
| 2026-05-07 17:14 | 49.78831 | 20.75338 | 36973 ft | 425 kts | 164° |
| 2026-05-07 17:15 | 49.73291 | 20.78526 | 36955 ft | 425 kts | 164° |
| 2026-05-07 17:15 | 49.67740 | 20.81696 | 36963 ft | 425 kts | 164° |
| 2026-05-07 17:16 | 49.62193 | 20.84860 | 36967 ft | 425 kts | 164° |
| 2026-05-07 17:16 | 49.56637 | 20.88023 | 36971 ft | 426 kts | 164° |
| 2026-05-07 17:17 | 49.51077 | 20.91174 | 36972 ft | 426 kts | 164° |
| 2026-05-07 17:17 | 49.45514 | 20.94321 | 36975 ft | 426 kts | 164° |
| 2026-05-07 17:18 | 49.39985 | 20.97454 | 36938 ft | 426 kts | 164° |
| 2026-05-07 17:18 | 49.34415 | 21.00583 | 36951 ft | 426 kts | 166° |
| 2026-05-07 17:19 | 49.28706 | 21.02835 | 36956 ft | 423 kts | 171° |
| 2026-05-07 17:19 | 49.22975 | 21.04927 | 36963 ft | 423 kts | 171° |
| 2026-05-07 17:20 | 49.17244 | 21.07026 | 36963 ft | 424 kts | 171° |
| 2026-05-07 17:20 | 49.11550 | 21.09110 | 36966 ft | 424 kts | 171° |
| 2026-05-07 17:21 | 49.05800 | 21.11120 | 36961 ft | 423 kts | 172° |
| 2026-05-07 17:21 | 49.00047 | 21.13050 | 36936 ft | 423 kts | 172° |
| 2026-05-07 17:22 | 48.95262 | 21.14654 | 36947 ft | 423 kts | 171° |
| 2026-05-07 17:22 | 48.89513 | 21.16601 | 36947 ft | 423 kts | 171° |
| 2026-05-07 17:23 | 48.83764 | 21.18566 | 36959 ft | 424 kts | 171° |
| 2026-05-07 17:23 | 48.78005 | 21.20514 | 36964 ft | 424 kts | 172° |
| 2026-05-07 17:24 | 48.72238 | 21.22443 | 36957 ft | 424 kts | 172° |
| 2026-05-07 17:24 | 48.66507 | 21.24370 | 36967 ft | 424 kts | 172° |
| 2026-05-07 17:25 | 48.60746 | 21.26303 | 36960 ft | 424 kts | 172° |
| 2026-05-07 17:25 | 48.54975 | 21.28234 | 36943 ft | 425 kts | 171° |
| 2026-05-07 17:26 | 48.49452 | 21.31628 | 36958 ft | 435 kts | 154° |
| 2026-05-07 17:26 | 48.44221 | 21.36240 | 36963 ft | 436 kts | 154° |
| 2026-05-07 17:27 | 48.38978 | 21.40817 | 36967 ft | 436 kts | 155° |
| 2026-05-07 17:27 | 48.33720 | 21.45387 | 36973 ft | 436 kts | 155° |
| 2026-05-07 17:28 | 48.28463 | 21.49960 | 36975 ft | 437 kts | 155° |
| 2026-05-07 17:28 | 48.23200 | 21.54534 | 36979 ft | 437 kts | 155° |
| 2026-05-07 17:29 | 48.17932 | 21.59102 | 36989 ft | 437 kts | 155° |
| 2026-05-07 17:29 | 48.12666 | 21.63647 | 36994 ft | 437 kts | 155° |
| 2026-05-07 17:30 | 48.07389 | 21.68191 | 36991 ft | 438 kts | 155° |
| 2026-05-07 17:30 | 48.02110 | 21.72726 | 36994 ft | 438 kts | 155° |
| 2026-05-07 17:31 | 47.96826 | 21.77261 | 36979 ft | 438 kts | 155° |
| 2026-05-07 17:31 | 47.91542 | 21.81803 | 36986 ft | 438 kts | 155° |
| 2026-05-07 17:32 | 47.86252 | 21.86314 | 36990 ft | 438 kts | 155° |
| 2026-05-07 17:32 | 47.80954 | 21.90826 | 36987 ft | 439 kts | 155° |
| 2026-05-07 17:33 | 47.75692 | 21.95300 | 36989 ft | 439 kts | 155° |
| 2026-05-07 17:33 | 47.70382 | 21.99807 | 36978 ft | 439 kts | 155° |
| 2026-05-07 17:34 | 47.65064 | 22.04302 | 36987 ft | 440 kts | 155° |
| 2026-05-07 17:34 | 47.59734 | 22.08799 | 36996 ft | 440 kts | 155° |
| 2026-05-07 17:35 | 47.54217 | 22.12522 | 36999 ft | 434 kts | 164° |
| 2026-05-07 17:35 | 47.48535 | 22.15607 | 37000 ft | 435 kts | 164° |
| 2026-05-07 17:36 | 47.42849 | 22.18691 | 36982 ft | 435 kts | 164° |
| 2026-05-07 17:36 | 47.37158 | 22.21778 | 36989 ft | 436 kts | 164° |
| 2026-05-07 17:37 | 47.31500 | 22.24853 | 36993 ft | 437 kts | 164° |
| 2026-05-07 17:37 | 47.25788 | 22.27937 | 37002 ft | 437 kts | 164° |
| 2026-05-07 17:38 | 47.20070 | 22.31017 | 37017 ft | 437 kts | 164° |
| 2026-05-07 17:38 | 47.14354 | 22.34086 | 37009 ft | 438 kts | 164° |
| 2026-05-07 17:39 | 47.08639 | 22.37148 | 37003 ft | 438 kts | 164° |
| 2026-05-07 17:39 | 47.02914 | 22.40210 | 37003 ft | 438 kts | 164° |
| 2026-05-07 17:40 | 46.97185 | 22.43274 | 37016 ft | 438 kts | 164° |
| 2026-05-07 17:40 | 46.91458 | 22.46328 | 37021 ft | 438 kts | 164° |
| 2026-05-07 17:41 | 46.85727 | 22.49371 | 37025 ft | 438 kts | 165° |
| 2026-05-07 17:41 | 46.79997 | 22.52406 | 37021 ft | 438 kts | 165° |
| 2026-05-07 17:42 | 46.74260 | 22.55435 | 37019 ft | 438 kts | 165° |
| 2026-05-07 17:42 | 46.68522 | 22.58442 | 37027 ft | 438 kts | 165° |
| 2026-05-07 17:43 | 46.62774 | 22.61398 | 37035 ft | 438 kts | 165° |
| 2026-05-07 17:43 | 46.57023 | 22.64333 | 37033 ft | 438 kts | 166° |
| 2026-05-07 17:44 | 46.51314 | 22.67246 | 37036 ft | 438 kts | 165° |
| 2026-05-07 17:44 | 46.45565 | 22.70188 | 37021 ft | 438 kts | 165° |
| 2026-05-07 17:45 | 46.39808 | 22.73139 | 37031 ft | 438 kts | 165° |
| 2026-05-07 17:45 | 46.34052 | 22.76072 | 37040 ft | 438 kts | 165° |
| 2026-05-07 17:46 | 46.28293 | 22.78990 | 37037 ft | 438 kts | 165° |
| 2026-05-07 17:46 | 46.22534 | 22.81901 | 37041 ft | 438 kts | 165° |
| 2026-05-07 17:47 | 46.16781 | 22.84808 | 37046 ft | 438 kts | 165° |
| 2026-05-07 17:47 | 46.11019 | 22.87712 | 37022 ft | 438 kts | 165° |
| 2026-05-07 17:48 | 46.05264 | 22.90608 | 37020 ft | 438 kts | 165° |
| 2026-05-07 17:48 | 45.99536 | 22.93495 | 37025 ft | 439 kts | 165° |
| 2026-05-07 17:49 | 45.93766 | 22.96386 | 37031 ft | 439 kts | 165° |
| 2026-05-07 17:49 | 45.87985 | 22.99270 | 37033 ft | 439 kts | 165° |
| 2026-05-07 17:50 | 45.82210 | 23.02143 | 37011 ft | 439 kts | 165° |
| 2026-05-07 17:50 | 45.76430 | 23.05023 | 37017 ft | 440 kts | 165° |
| 2026-05-07 17:51 | 45.70647 | 23.07905 | 37029 ft | 440 kts | 165° |
| 2026-05-07 17:51 | 45.64852 | 23.10772 | 37035 ft | 441 kts | 165° |
| 2026-05-07 17:52 | 45.59055 | 23.13632 | 37034 ft | 441 kts | 165° |
| 2026-05-07 17:52 | 45.53255 | 23.16496 | 37041 ft | 441 kts | 165° |
| 2026-05-07 17:53 | 45.47483 | 23.19346 | 37044 ft | 442 kts | 165° |
| 2026-05-07 17:53 | 45.41633 | 23.22222 | 37053 ft | 441 kts | 165° |
| 2026-05-07 17:54 | 45.35860 | 23.25052 | 37057 ft | 442 kts | 165° |
| 2026-05-07 17:54 | 45.30041 | 23.27900 | 37055 ft | 442 kts | 165° |
| 2026-05-07 17:55 | 45.24219 | 23.30736 | 37055 ft | 442 kts | 165° |
| 2026-05-07 17:55 | 45.18402 | 23.33565 | 37056 ft | 443 kts | 165° |
| 2026-05-07 17:56 | 45.12567 | 23.36395 | 37051 ft | 443 kts | 165° |
| 2026-05-07 17:56 | 45.06776 | 23.39450 | 37043 ft | 446 kts | 161° |
| 2026-05-07 17:57 | 45.02052 | 23.42444 | 37060 ft | 448 kts | 159° |
| 2026-05-07 17:57 | 44.95456 | 23.46804 | 37056 ft | 448 kts | 160° |
| 2026-05-07 17:58 | 44.89765 | 23.50408 | 37028 ft | 448 kts | 160° |
| 2026-05-07 17:58 | 44.84049 | 23.53923 | 37034 ft | 448 kts | 160° |
| 2026-05-07 17:59 | 44.78361 | 23.57420 | 37034 ft | 449 kts | 160° |
| 2026-05-07 17:59 | 44.72608 | 23.60985 | 37032 ft | 449 kts | 160° |
| 2026-05-07 18:00 | 44.66923 | 23.64516 | 37034 ft | 450 kts | 160° |
| 2026-05-07 18:00 | 44.61193 | 23.68046 | 37018 ft | 450 kts | 160° |
| 2026-05-07 18:01 | 44.55444 | 23.71581 | 37031 ft | 451 kts | 160° |
| 2026-05-07 18:01 | 44.49686 | 23.75117 | 37039 ft | 452 kts | 160° |
| 2026-05-07 18:02 | 44.41031 | 23.80401 | 37047 ft | 452 kts | 161° |
| 2026-05-07 18:03 | 44.35258 | 23.83923 | 37033 ft | 452 kts | 160° |
| 2026-05-07 18:03 | 44.29484 | 23.87443 | 37026 ft | 453 kts | 160° |
| 2026-05-07 18:04 | 44.23710 | 23.90956 | 37028 ft | 453 kts | 160° |
| 2026-05-07 18:04 | 44.17920 | 23.94469 | 37032 ft | 454 kts | 160° |
| 2026-05-07 18:05 | 44.12125 | 23.97969 | 37037 ft | 454 kts | 160° |
| 2026-05-07 18:05 | 44.06373 | 24.01441 | 37032 ft | 454 kts | 160° |
| 2026-05-07 18:06 | 44.00582 | 24.04934 | 37053 ft | 453 kts | 160° |
| 2026-05-07 18:06 | 43.94797 | 24.08413 | 37051 ft | 453 kts | 160° |
| 2026-05-07 18:07 | 43.89016 | 24.11883 | 37045 ft | 453 kts | 160° |
| 2026-05-07 18:07 | 43.83228 | 24.15353 | 37035 ft | 453 kts | 160° |
| 2026-05-07 18:08 | 43.77433 | 24.18819 | 37037 ft | 453 kts | 160° |
| 2026-05-07 18:08 | 43.71659 | 24.22287 | 37027 ft | 453 kts | 158° |
| 2026-05-07 18:09 | 43.66404 | 24.27206 | 37037 ft | 462 kts | 139° |
| 2026-05-07 18:09 | 43.61782 | 24.33416 | 37032 ft | 464 kts | 139° |
| 2026-05-07 18:10 | 43.57137 | 24.39591 | 37029 ft | 464 kts | 139° |
| 2026-05-07 18:10 | 43.53265 | 24.44722 | 37035 ft | 464 kts | 139° |
| 2026-05-07 18:11 | 43.48611 | 24.50892 | 37056 ft | 465 kts | 139° |
| 2026-05-07 18:11 | 43.43940 | 24.57070 | 37054 ft | 465 kts | 139° |
| 2026-05-07 18:12 | 43.39263 | 24.63235 | 37038 ft | 466 kts | 139° |
| 2026-05-07 18:12 | 43.34580 | 24.69399 | 37042 ft | 466 kts | 139° |
| 2026-05-07 18:13 | 43.29893 | 24.75560 | 37047 ft | 466 kts | 139° |
| 2026-05-07 18:13 | 43.25204 | 24.81721 | 37051 ft | 467 kts | 139° |
| 2026-05-07 18:14 | 43.20506 | 24.87873 | 37060 ft | 467 kts | 139° |
| 2026-05-07 18:14 | 43.15801 | 24.94007 | 37054 ft | 467 kts | 139° |
| 2026-05-07 18:15 | 43.11092 | 25.00139 | 37047 ft | 467 kts | 139° |
| 2026-05-07 18:15 | 43.06376 | 25.06276 | 37047 ft | 468 kts | 139° |
| 2026-05-07 18:16 | 43.01682 | 25.12364 | 37057 ft | 468 kts | 139° |
| 2026-05-07 18:16 | 42.96959 | 25.18485 | 37069 ft | 468 kts | 139° |
| 2026-05-07 18:17 | 42.92236 | 25.24599 | 37068 ft | 467 kts | 139° |
| 2026-05-07 18:17 | 42.87515 | 25.30694 | 37051 ft | 468 kts | 139° |
| 2026-05-07 18:18 | 42.82775 | 25.36792 | 37044 ft | 469 kts | 140° |
| 2026-05-07 18:18 | 42.78016 | 25.42891 | 37044 ft | 470 kts | 140° |
| 2026-05-07 18:19 | 42.73253 | 25.48994 | 37051 ft | 470 kts | 140° |
| 2026-05-07 18:19 | 42.68491 | 25.55089 | 37049 ft | 471 kts | 139° |
| 2026-05-07 18:20 | 42.63722 | 25.61177 | 36560 ft | 469 kts | 139° |
| 2026-05-07 18:20 | 42.61374 | 25.64166 | 35885 ft | 468 kts | 140° |
| 2026-05-07 18:20 | 42.58995 | 25.67186 | 35232 ft | 467 kts | 140° |
| 2026-05-07 18:20 | 42.56628 | 25.70189 | 34603 ft | 466 kts | 140° |
| 2026-05-07 18:21 | 42.54269 | 25.73185 | 34016 ft | 464 kts | 140° |
| 2026-05-07 18:21 | 42.51915 | 25.76172 | 33272 ft | 463 kts | 139° |
| 2026-05-07 18:21 | 42.49561 | 25.79154 | 32448 ft | 464 kts | 139° |
| 2026-05-07 18:21 | 42.47199 | 25.82144 | 31583 ft | 466 kts | 139° |
| 2026-05-07 18:22 | 42.44823 | 25.85151 | 30717 ft | 468 kts | 139° |
| 2026-05-07 18:22 | 42.43216 | 25.87181 | 30350 ft | 469 kts | 139° |
| 2026-05-07 18:22 | 42.40037 | 25.91186 | 30034 ft | 472 kts | 139° |
| 2026-05-07 18:23 | 42.35211 | 25.97251 | 30040 ft | 474 kts | 139° |
| 2026-05-07 18:23 | 42.30369 | 26.03332 | 30049 ft | 476 kts | 139° |
| 2026-05-07 18:24 | 42.25518 | 26.09407 | 30047 ft | 476 kts | 139° |
| 2026-05-07 18:24 | 42.20657 | 26.15480 | 30047 ft | 476 kts | 139° |
| 2026-05-07 18:25 | 42.15783 | 26.21539 | 30039 ft | 477 kts | 139° |
| 2026-05-07 18:25 | 42.13347 | 26.24556 | 29295 ft | 474 kts | 139° |
| 2026-05-07 18:25 | 42.10919 | 26.27561 | 28440 ft | 476 kts | 139° |
| 2026-05-07 18:25 | 42.08472 | 26.30588 | 28147 ft | 479 kts | 139° |
| 2026-05-07 18:26 | 42.06013 | 26.33626 | 28009 ft | 479 kts | 139° |
| 2026-05-07 18:26 | 42.01090 | 26.39704 | 28054 ft | 481 kts | 139° |
| 2026-05-07 18:27 | 41.96151 | 26.45795 | 28055 ft | 482 kts | 139° |
| 2026-05-07 18:27 | 41.91204 | 26.51869 | 28055 ft | 482 kts | 139° |
| 2026-05-07 18:28 | 41.86372 | 26.58100 | 28057 ft | 483 kts | 131° |
| 2026-05-07 18:28 | 41.82083 | 26.65051 | 28061 ft | 484 kts | 131° |
| 2026-05-07 18:29 | 41.77787 | 26.72010 | 28066 ft | 484 kts | 131° |
| 2026-05-07 18:29 | 41.73486 | 26.78947 | 28071 ft | 484 kts | 131° |
| 2026-05-07 18:30 | 41.69177 | 26.85878 | 28071 ft | 484 kts | 131° |
| 2026-05-07 18:30 | 41.64855 | 26.92815 | 28081 ft | 486 kts | 131° |
| 2026-05-07 18:31 | 41.60560 | 26.99705 | 28084 ft | 486 kts | 131° |
| 2026-05-07 18:31 | 41.56200 | 27.06673 | 28084 ft | 485 kts | 131° |
| 2026-05-07 18:32 | 41.51730 | 27.13329 | 28088 ft | 485 kts | 135° |
| 2026-05-07 18:32 | 41.46963 | 27.19693 | 28089 ft | 485 kts | 136° |
| 2026-05-07 18:33 | 41.42148 | 27.26021 | 28091 ft | 486 kts | 136° |
| 2026-05-07 18:33 | 41.39766 | 27.29210 | 27748 ft | 482 kts | 135° |
| 2026-05-07 18:33 | 41.37457 | 27.32386 | 27381 ft | 470 kts | 134° |
| 2026-05-07 18:33 | 41.35267 | 27.35506 | 27252 ft | 453 kts | 134° |
| 2026-05-07 18:34 | 41.33178 | 27.38557 | 27114 ft | 438 kts | 133° |
| 2026-05-07 18:34 | 41.31176 | 27.41516 | 26994 ft | 424 kts | 133° |
| 2026-05-07 18:34 | 41.29236 | 27.44377 | 26865 ft | 410 kts | 133° |
| 2026-05-07 18:34 | 41.27349 | 27.47142 | 26733 ft | 397 kts | 133° |
| 2026-05-07 18:35 | 41.25504 | 27.49823 | 26414 ft | 391 kts | 133° |
| 2026-05-07 18:35 | 41.23669 | 27.52464 | 26011 ft | 387 kts | 133° |
| 2026-05-07 18:35 | 41.21848 | 27.55075 | 25599 ft | 384 kts | 133° |
| 2026-05-07 18:35 | 41.20037 | 27.57674 | 25180 ft | 382 kts | 133° |
| 2026-05-07 18:36 | 41.18244 | 27.60251 | 24777 ft | 379 kts | 133° |
| 2026-05-07 18:36 | 41.16458 | 27.62818 | 24371 ft | 376 kts | 133° |
| 2026-05-07 18:36 | 41.14687 | 27.65364 | 23972 ft | 374 kts | 134° |
| 2026-05-07 18:36 | 41.12922 | 27.67896 | 23552 ft | 372 kts | 134° |
| 2026-05-07 18:37 | 41.11170 | 27.70411 | 23091 ft | 370 kts | 134° |
| 2026-05-07 18:37 | 41.09432 | 27.72903 | 22658 ft | 367 kts | 134° |
| 2026-05-07 18:37 | 41.07700 | 27.75385 | 22243 ft | 365 kts | 134° |
| 2026-05-07 18:37 | 41.06000 | 27.77815 | 21836 ft | 363 kts | 134° |
| 2026-05-07 18:38 | 41.04289 | 27.80253 | 21433 ft | 360 kts | 134° |
| 2026-05-07 18:38 | 41.02585 | 27.82680 | 21035 ft | 358 kts | 134° |
| 2026-05-07 18:38 | 41.00897 | 27.85088 | 20643 ft | 356 kts | 134° |
| 2026-05-07 18:38 | 40.99219 | 27.87482 | 20256 ft | 354 kts | 134° |
| 2026-05-07 18:39 | 40.97523 | 27.89900 | 19883 ft | 352 kts | 134° |
| 2026-05-07 18:39 | 40.95887 | 27.92231 | 19522 ft | 350 kts | 134° |
| 2026-05-07 18:39 | 40.94235 | 27.94584 | 19160 ft | 348 kts | 134° |
| 2026-05-07 18:39 | 40.92591 | 27.96922 | 18810 ft | 346 kts | 134° |
| 2026-05-07 18:40 | 40.90957 | 27.99242 | 18463 ft | 344 kts | 134° |
| 2026-05-07 18:40 | 40.89328 | 28.01549 | 18087 ft | 342 kts | 134° |
| 2026-05-07 18:40 | 40.87707 | 28.03846 | 17718 ft | 340 kts | 134° |
| 2026-05-07 18:40 | 40.86097 | 28.06128 | 17355 ft | 338 kts | 134° |
| 2026-05-07 18:41 | 40.84496 | 28.08395 | 16985 ft | 337 kts | 134° |
| 2026-05-07 18:41 | 40.82901 | 28.10652 | 16621 ft | 336 kts | 134° |
| 2026-05-07 18:41 | 40.81311 | 28.12897 | 16280 ft | 334 kts | 134° |
| 2026-05-07 18:41 | 40.79730 | 28.15129 | 15967 ft | 332 kts | 134° |
| 2026-05-07 18:42 | 40.78157 | 28.17347 | 15640 ft | 330 kts | 134° |
| 2026-05-07 18:42 | 40.76598 | 28.19548 | 15328 ft | 328 kts | 134° |
| 2026-05-07 18:42 | 40.75043 | 28.21738 | 15013 ft | 326 kts | 134° |
| 2026-05-07 18:42 | 40.73496 | 28.23912 | 14712 ft | 324 kts | 134° |
| 2026-05-07 18:43 | 40.71961 | 28.26072 | 14406 ft | 322 kts | 134° |
| 2026-05-07 18:43 | 40.70431 | 28.28225 | 14112 ft | 320 kts | 134° |
| 2026-05-07 18:43 | 40.69084 | 28.30544 | 13805 ft | 319 kts | 120° |
| 2026-05-07 18:43 | 40.68185 | 28.33196 | 13466 ft | 317 kts | 107° |
| 2026-05-07 18:44 | 40.67778 | 28.36031 | 13133 ft | 315 kts | 93° |
| 2026-05-07 18:44 | 40.67714 | 28.38907 | 12803 ft | 313 kts | 90° |
| 2026-05-07 18:44 | 40.67657 | 28.41757 | 12472 ft | 311 kts | 91° |
| 2026-05-07 18:44 | 40.67600 | 28.44557 | 12139 ft | 309 kts | 89° |
| 2026-05-07 18:45 | 40.67890 | 28.47336 | 11814 ft | 305 kts | 76° |
| 2026-05-07 18:45 | 40.68354 | 28.50059 | 11476 ft | 304 kts | 76° |
| 2026-05-07 18:45 | 40.68818 | 28.52766 | 11144 ft | 302 kts | 76° |
| 2026-05-07 18:45 | 40.69280 | 28.55460 | 10819 ft | 301 kts | 76° |
| 2026-05-07 18:46 | 40.69739 | 28.58141 | 10493 ft | 299 kts | 76° |
| 2026-05-07 18:46 | 40.70192 | 28.60806 | 10171 ft | 297 kts | 76° |
| 2026-05-07 18:46 | 40.70641 | 28.63455 | 9847 ft | 295 kts | 76° |
| 2026-05-07 18:46 | 40.71086 | 28.66082 | 9483 ft | 293 kts | 77° |
| 2026-05-07 18:47 | 40.71529 | 28.68703 | 9081 ft | 293 kts | 76° |
| 2026-05-07 18:47 | 40.71971 | 28.71318 | 8695 ft | 292 kts | 76° |
| 2026-05-07 18:47 | 40.72412 | 28.73926 | 8307 ft | 291 kts | 76° |
| 2026-05-07 18:47 | 40.72851 | 28.76521 | 7919 ft | 290 kts | 76° |
| 2026-05-07 18:48 | 40.73288 | 28.79119 | 7528 ft | 289 kts | 77° |
| 2026-05-07 18:48 | 40.73722 | 28.81701 | 7148 ft | 288 kts | 77° |
| 2026-05-07 18:48 | 40.74154 | 28.84278 | 6762 ft | 287 kts | 77° |
| 2026-05-07 18:48 | 40.74584 | 28.86850 | 6368 ft | 287 kts | 77° |
| 2026-05-07 18:49 | 40.75013 | 28.89415 | 5986 ft | 285 kts | 77° |
| 2026-05-07 18:49 | 40.75428 | 28.91901 | 5803 ft | 268 kts | 77° |
| 2026-05-07 18:49 | 40.75810 | 28.94207 | 5656 ft | 247 kts | 77° |
| 2026-05-07 18:49 | 40.76162 | 28.96327 | 5549 ft | 225 kts | 76° |
| 2026-05-07 18:50 | 40.76477 | 28.98232 | 5457 ft | 198 kts | 76° |
| 2026-05-07 18:50 | 40.76835 | 28.99874 | 5223 ft | 178 kts | 54° |
| 2026-05-07 18:50 | 40.77610 | 29.01044 | 4987 ft | 166 kts | 47° |
| 2026-05-07 18:50 | 40.78154 | 29.02387 | 4796 ft | 166 kts | 61° |
| 2026-05-07 18:51 | 40.78660 | 29.03749 | 4567 ft | 164 kts | 60° |
| 2026-05-07 18:51 | 40.79162 | 29.05093 | 4350 ft | 163 kts | 60° |
| 2026-05-07 18:51 | 40.79660 | 29.06430 | 4136 ft | 162 kts | 60° |
| 2026-05-07 18:51 | 40.80155 | 29.07762 | 3925 ft | 162 kts | 60° |
| 2026-05-07 18:52 | 40.80649 | 29.09092 | 3714 ft | 161 kts | 60° |
| 2026-05-07 18:52 | 40.81143 | 29.10422 | 3506 ft | 161 kts | 60° |
| 2026-05-07 18:52 | 40.81636 | 29.11748 | 3297 ft | 161 kts | 60° |
| 2026-05-07 18:52 | 40.82127 | 29.13072 | 3085 ft | 160 kts | 60° |
| 2026-05-07 18:53 | 40.82610 | 29.14376 | 2876 ft | 160 kts | 60° |
| 2026-05-07 18:53 | 40.83100 | 29.15696 | 2666 ft | 160 kts | 60° |
| 2026-05-07 18:53 | 40.83588 | 29.17012 | 2457 ft | 159 kts | 61° |
| 2026-05-07 18:53 | 40.84073 | 29.18322 | 2246 ft | 158 kts | 62° |
| 2026-05-07 18:54 | 40.84554 | 29.19620 | 2042 ft | 156 kts | 62° |
| 2026-05-07 18:54 | 40.85028 | 29.20903 | 1834 ft | 155 kts | 62° |
| 2026-05-07 18:54 | 40.85498 | 29.22173 | 1627 ft | 153 kts | 63° |
| 2026-05-07 18:54 | 40.85964 | 29.23432 | 1424 ft | 151 kts | 63° |
| 2026-05-07 18:55 | 40.86423 | 29.24674 | 1224 ft | 150 kts | 63° |
| 2026-05-07 18:55 | 40.86875 | 29.25899 | 1032 ft | 147 kts | 64° |
| 2026-05-07 18:55 | 40.87322 | 29.27109 | 834 ft | 146 kts | 64° |
| 2026-05-07 18:55 | 40.87758 | 29.28308 | 665 ft | 144 kts | 65° |
| 2026-05-07 18:56 | 40.88199 | 29.29497 | 460 ft | 143 kts | 64° |
| 2026-05-07 18:56 | 40.88638 | 29.30668 | 291 ft | 138 kts | 65° |
| 2026-05-07 18:56 | 40.88981 | 29.31600 | 310 ft | 92 kts | 64° |
| 2026-05-07 18:56 | 40.89192 | 29.32181 | 305 ft | 42 kts | 61° |
| 2026-05-07 18:57 | 40.89297 | 29.32361 | 302 ft | 21 kts | 45° |
| 2026-05-07 18:57 | 40.89380 | 29.32441 | 306 ft | 6 kts | 32° |
| 2026-05-07 18:57 | 40.89397 | 29.32456 | 307 ft | 4 kts | 32° |
| 2026-05-07 18:57 | 40.89430 | 29.32483 | 307 ft | 7 kts | 33° |
| 2026-05-07 18:58 | 40.89467 | 29.32498 | 307 ft | 10 kts | 355° |
| 2026-05-07 18:58 | 40.89515 | 29.32376 | 307 ft | 13 kts | 315° |
| 2026-05-07 18:58 | 40.89600 | 29.32333 | 307 ft | 12 kts | 341° |
| 2026-05-07 18:58 | 40.89653 | 29.32307 | 307 ft | 12 kts | 336° |
| 2026-05-07 18:59 | 40.89720 | 29.32265 | 307 ft | 9 kts | 335° |
| 2026-05-07 18:59 | 40.89772 | 29.32231 | 308 ft | 10 kts | 333° |
| 2026-05-07 18:59 | 40.89861 | 29.32172 | 312 ft | 18 kts | 333° |
| 2026-05-07 18:59 | 40.89971 | 29.32099 | 315 ft | 15 kts | 333° |
| 2026-05-07 19:00 | 40.90041 | 29.32055 | 320 ft | 8 kts | 341° |
| 2026-05-07 19:00 | 40.90118 | 29.32124 | 321 ft | 18 kts | 63° |
| 2026-05-07 19:00 | 40.90172 | 29.32277 | 320 ft | 19 kts | 65° |
| 2026-05-07 19:00 | 40.90233 | 29.32442 | 321 ft | 20 kts | 64° |
| 2026-05-07 19:01 | 40.90291 | 29.32578 | 320 ft | 14 kts | 36° |
| 2026-05-07 19:01 | 40.90365 | 29.32561 | 299 ft | 10 kts | 334° |
| 2026-05-07 19:01 | 40.90444 | 29.32509 | 319 ft | 14 kts | 334° |
| 2026-05-07 19:01 | 40.90531 | 29.32455 | 320 ft | 14 kts | 335° |
| 2026-05-07 19:02 | 40.90599 | 29.32389 | 319 ft | 12 kts | 294° |
| 2026-05-07 19:02 | 40.90657 | 29.32314 | 321 ft | 10 kts | 332° |
| 2026-05-07 19:02 | 40.90713 | 29.32274 | 321 ft | 8 kts | 327° |
| 2026-05-07 19:02 | 40.90725 | 29.32192 | 321 ft | 14 kts | 250° |
| 2026-05-07 19:03 | 40.90688 | 29.32086 | 321 ft | 9 kts | 244° |
| 2026-05-07 19:03 | 40.90647 | 29.32055 | 319 ft | 7 kts | 169° |
| 2026-05-07 19:03 | 40.90608 | 29.32075 | 321 ft | 4 kts | 156° |
| 2026-05-07 19:03 | 40.90602 | 29.32078 | 321 ft | 0 kts | 156° |